Time;durP1;ratioP1;P1;durP2;ratioP2;P2;SDS_P1;SDS_P2;PMS_P1;PMS_P2;Temp;Humidity;BMP_temperature;BMP_pressure;BME280_temperature;BME280_humidity;BME280_pressure;Samples;Min_cycle;Max_cycle;Signal;HPM_P1;HPM_P2
2023/06/11 00:02:21;;;;;;;11.45;5.57;;;;;;;;;;4996831;28;20033;-58
2023/06/11 00:04:49;;;;;;;9.98;5.00;;;;;;;;;;4996635;28;20168;-58
2023/06/11 00:07:15;;;;;;;12.13;5.05;;;;;;;;;;4996326;28;20079;-58
2023/06/11 00:09:41;;;;;;;11.90;4.97;;;;;;;;;;4996122;28;20042;-58
2023/06/11 00:12:07;;;;;;;11.98;4.80;;;;;;;;;;4996786;28;20050;-58
2023/06/11 00:14:33;;;;;;;12.55;4.95;;;;;;;;;;4995266;28;21033;-58
2023/06/11 00:17:00;;;;;;;13.98;5.75;;;;;;;;;;4997186;28;20030;-58
2023/06/11 00:19:29;;;;;;;13.70;5.55;;;;;;;;;;4997207;28;20037;-58
2023/06/11 00:22:00;;;;;;;10.60;5.15;;;;;;;;;;4995483;28;20056;-58
2023/06/11 00:24:26;;;;;;;10.35;5.32;;;;;;;;;;4995073;28;20152;-58
2023/06/11 00:26:52;;;;;;;10.82;5.40;;;;;;;;;;4996745;28;20503;-58
2023/06/11 00:29:18;;;;;;;12.55;5.20;;;;;;;;;;4996889;28;20109;-58
2023/06/11 00:31:44;;;;;;;10.45;4.60;;;;;;;;;;4996279;28;20042;-58
2023/06/11 00:34:10;;;;;;;9.00;5.35;;;;;;;;;;4996096;28;20037;-58
2023/06/11 00:36:36;;;;;;;10.65;5.20;;;;;;;;;;4996655;28;20138;-58
2023/06/11 00:39:03;;;;;;;10.48;5.07;;;;;;;;;;4995860;28;20037;-58
2023/06/11 00:41:30;;;;;;;9.20;5.22;;;;;;;;;;4996796;28;21248;-58
2023/06/11 00:43:57;;;;;;;15.65;6.38;;;;;;;;;;4996083;28;20598;-58
2023/06/11 00:46:23;;;;;;;10.13;5.30;;;;;;;;;;4995932;28;20034;-58
2023/06/11 00:48:50;;;;;;;12.35;5.40;;;;;;;;;;4997133;28;20061;-58
2023/06/11 00:51:22;;;;;;;12.50;5.50;;;;;;;;;;4995185;28;20033;-58
2023/06/11 00:53:50;;;;;;;9.63;5.43;;;;;;;;;;4995252;28;20087;-58
2023/06/11 00:56:20;;;;;;;12.35;5.35;;;;;;;;;;4996108;28;20263;-58
2023/06/11 00:58:47;;;;;;;10.35;4.82;;;;;;;;;;4995357;28;20120;-58
2023/06/11 01:01:19;;;;;;;10.77;5.22;;;;;;;;;;4998026;28;20408;-58
2023/06/11 01:03:45;;;;;;;12.55;5.78;;;;;;;;;;4997709;28;20026;-58
2023/06/11 01:06:17;;;;;;;10.85;5.65;;;;;;;;;;4995373;28;20176;-58
2023/06/11 01:08:43;;;;;;;11.95;5.65;;;;;;;;;;4999539;28;20255;-58
2023/06/11 01:11:13;;;;;;;10.55;4.63;;;;;;;;;;4999878;28;20037;-58
2023/06/11 01:13:40;;;;;;;11.63;5.82;;;;;;;;;;4997492;28;20026;-58
2023/06/11 01:16:13;;;;;;;16.85;5.15;;;;;;;;;;4999806;28;20029;-58
2023/06/11 01:19:09;;;;;;;8.45;5.78;;;;;;;;;;4999588;28;20030;-58
2023/06/11 01:21:43;;;;;;;10.43;5.45;;;;;;;;;;4961312;28;20056;-58
2023/06/11 01:24:17;;;;;;;12.60;5.95;;;;;;;;;;4998208;28;20032;-58
2023/06/11 01:27:04;;;;;;;9.48;5.60;;;;;;;;;;4998857;28;20120;-58
2023/06/11 01:29:30;;;;;;;10.35;5.60;;;;;;;;;;4999315;28;20041;-58
2023/06/11 01:31:58;;;;;;;8.18;5.10;;;;;;;;;;4998620;28;20195;-58
2023/06/11 01:34:25;;;;;;;12.07;5.53;;;;;;;;;;4998539;28;20045;-58
2023/06/11 01:36:51;;;;;;;8.18;5.93;;;;;;;;;;4999382;28;20120;-58
2023/06/11 01:39:17;;;;;;;11.52;5.80;;;;;;;;;;4998838;28;20049;-58
2023/06/11 01:41:43;;;;;;;13.07;5.80;;;;;;;;;;4999407;28;20687;-58
2023/06/11 01:44:10;;;;;;;10.43;5.75;;;;;;;;;;4999694;28;20384;-58
2023/06/11 01:46:36;;;;;;;10.18;5.70;;;;;;;;;;4998102;28;20030;-58
2023/06/11 01:49:02;;;;;;;9.15;5.55;;;;;;;;;;4999188;28;20129;-58
2023/06/11 01:51:28;;;;;;;10.70;5.75;;;;;;;;;;5014465;28;20026;-58
2023/06/11 01:53:55;;;;;;;11.25;6.10;;;;;;;;;;4998868;28;20030;-58
2023/06/11 01:56:21;;;;;;;9.95;6.07;;;;;;;;;;4998892;28;20040;-58
2023/06/11 01:58:47;;;;;;;10.40;5.57;;;;;;;;;;4998929;28;20038;-58
2023/06/11 02:01:13;;;;;;;8.57;6.00;;;;;;;;;;4998981;28;20378;-58
2023/06/11 02:03:40;;;;;;;10.57;5.80;;;;;;;;;;4997857;28;20381;-58
2023/06/11 02:06:07;;;;;;;9.73;5.80;;;;;;;;;;4999776;28;20056;-58
2023/06/11 02:08:34;;;;;;;9.30;5.53;;;;;;;;;;4998497;28;20028;-58
2023/06/11 02:11:00;;;;;;;9.63;6.07;;;;;;;;;;4997496;28;20038;-57
2023/06/11 02:13:30;;;;;;;8.73;5.70;;;;;;;;;;4998456;28;20045;-58
2023/06/11 02:15:57;;;;;;;11.20;6.43;;;;;;;;;;4998149;28;20046;-58
2023/06/11 02:18:23;;;;;;;8.63;6.07;;;;;;;;;;4997556;28;20091;-58
2023/06/11 02:20:49;;;;;;;10.05;6.30;;;;;;;;;;4998502;28;20092;-58
2023/06/11 02:23:16;;;;;;;11.13;6.93;;;;;;;;;;4997935;28;20069;-58
2023/06/11 02:25:42;;;;;;;12.27;6.35;;;;;;;;;;4998230;28;20053;-58
2023/06/11 02:28:08;;;;;;;10.32;6.38;;;;;;;;;;4997184;28;20037;-58
2023/06/11 02:30:34;;;;;;;11.80;6.43;;;;;;;;;;4998061;28;20034;-58
2023/06/11 02:33:00;;;;;;;9.63;6.60;;;;;;;;;;4998540;28;20148;-58
2023/06/11 02:35:26;;;;;;;9.05;6.28;;;;;;;;;;4998277;28;20045;-58
2023/06/11 02:37:52;;;;;;;8.88;6.30;;;;;;;;;;4998356;28;20924;-58
2023/06/11 02:40:18;;;;;;;10.95;6.82;;;;;;;;;;4997966;28;20645;-58
2023/06/11 02:42:44;;;;;;;11.60;6.85;;;;;;;;;;4997544;28;20038;-58
2023/06/11 02:45:11;;;;;;;11.20;6.82;;;;;;;;;;4997659;28;20037;-58
2023/06/11 02:47:37;;;;;;;9.77;6.55;;;;;;;;;;4997781;28;20041;-58
2023/06/11 02:50:03;;;;;;;12.65;7.35;;;;;;;;;;4998598;28;20042;-58
2023/06/11 02:52:29;;;;;;;10.23;6.72;;;;;;;;;;4997530;28;20033;-57
2023/06/11 02:54:55;;;;;;;7.78;6.00;;;;;;;;;;4997972;28;20160;-58
2023/06/11 02:57:21;;;;;;;11.07;6.32;;;;;;;;;;4998154;28;20084;-58
2023/06/11 02:59:47;;;;;;;10.52;6.53;;;;;;;;;;4996428;28;20041;-58
2023/06/11 03:02:13;;;;;;;10.68;6.28;;;;;;;;;;4998522;28;20033;-58
2023/06/11 03:04:39;;;;;;;9.85;6.78;;;;;;;;;;4997697;28;20031;-58
2023/06/11 03:07:05;;;;;;;16.25;7.57;;;;;;;;;;4996110;28;20476;-58
2023/06/11 03:09:31;;;;;;;11.68;6.70;;;;;;;;;;4995767;28;20034;-58
2023/06/11 03:11:57;;;;;;;8.32;6.05;;;;;;;;;;4995741;28;20066;-58
2023/06/11 03:14:26;;;;;;;10.52;6.70;;;;;;;;;;4995247;28;20429;-58
2023/06/11 03:16:52;;;;;;;9.23;6.35;;;;;;;;;;4996538;28;20564;-57
2023/06/11 03:19:18;;;;;;;12.25;6.88;;;;;;;;;;4993708;28;20608;-58
2023/06/11 03:21:44;;;;;;;11.80;7.53;;;;;;;;;;4997584;28;20029;-58
2023/06/11 03:24:10;;;;;;;9.88;6.72;;;;;;;;;;4997641;28;21688;-57
2023/06/11 03:26:36;;;;;;;9.63;7.22;;;;;;;;;;4998220;28;20116;-57
2023/06/11 03:29:03;;;;;;;11.93;7.35;;;;;;;;;;4995750;28;20119;-58
2023/06/11 03:31:29;;;;;;;9.35;6.53;;;;;;;;;;4997367;28;20064;-58
2023/06/11 03:33:55;;;;;;;11.10;7.32;;;;;;;;;;4997237;28;20416;-58
2023/06/11 03:36:21;;;;;;;11.38;7.07;;;;;;;;;;4997599;28;20030;-57
2023/06/11 03:38:47;;;;;;;9.70;6.88;;;;;;;;;;4996972;28;20038;-58
2023/06/11 03:41:14;;;;;;;14.55;6.97;;;;;;;;;;4997688;28;20091;-57
2023/06/11 03:43:40;;;;;;;13.20;6.95;;;;;;;;;;4996285;28;20029;-58
2023/06/11 03:46:06;;;;;;;13.90;7.20;;;;;;;;;;4996576;28;20076;-58
2023/06/11 03:48:32;;;;;;;10.57;6.72;;;;;;;;;;4997280;28;20025;-58
2023/06/11 03:50:58;;;;;;;9.57;6.47;;;;;;;;;;4994590;28;20145;-59
2023/06/11 03:53:25;;;;;;;9.52;7.15;;;;;;;;;;4997266;28;20041;-57
2023/06/11 03:55:51;;;;;;;10.18;6.60;;;;;;;;;;4997414;28;20041;-58
2023/06/11 03:58:17;;;;;;;10.73;7.28;;;;;;;;;;4996763;28;20037;-58
2023/06/11 04:00:43;;;;;;;12.00;6.47;;;;;;;;;;4996646;28;20121;-58
2023/06/11 04:03:09;;;;;;;9.10;7.18;;;;;;;;;;4997299;28;20152;-58
2023/06/11 04:05:36;;;;;;;12.48;7.40;;;;;;;;;;4997546;28;20038;-58
2023/06/11 04:08:02;;;;;;;10.35;7.40;;;;;;;;;;4997139;28;20036;-58
2023/06/11 04:10:28;;;;;;;10.35;7.05;;;;;;;;;;4997058;28;20079;-58
2023/06/11 04:12:54;;;;;;;11.63;7.50;;;;;;;;;;4995232;28;20057;-58
2023/06/11 04:15:20;;;;;;;10.10;7.18;;;;;;;;;;4996118;28;21813;-57
2023/06/11 04:17:47;;;;;;;10.60;7.22;;;;;;;;;;4996960;28;20091;-58
2023/06/11 04:20:13;;;;;;;9.88;6.65;;;;;;;;;;4997450;28;20544;-58
2023/06/11 04:22:39;;;;;;;10.52;6.97;;;;;;;;;;4997544;28;20920;-57
2023/06/11 04:25:06;;;;;;;11.63;7.57;;;;;;;;;;4996443;28;21000;-58
2023/06/11 04:27:33;;;;;;;9.70;7.22;;;;;;;;;;4996165;28;21475;-58
2023/06/11 04:30:00;;;;;;;12.25;7.70;;;;;;;;;;4996986;28;20072;-58
2023/06/11 04:32:27;;;;;;;11.40;6.78;;;;;;;;;;4995996;28;20109;-57
2023/06/11 04:34:56;;;;;;;9.57;6.97;;;;;;;;;;4997887;28;20405;-58
2023/06/11 04:37:24;;;;;;;10.10;7.57;;;;;;;;;;5001357;28;20091;-58
2023/06/11 04:39:50;;;;;;;10.32;6.95;;;;;;;;;;4999871;28;20046;-58
2023/06/11 04:42:16;;;;;;;13.20;7.35;;;;;;;;;;5001078;28;20172;-58
2023/06/11 04:44:43;;;;;;;11.40;7.38;;;;;;;;;;4999877;28;20048;-58
2023/06/11 04:47:10;;;;;;;10.10;7.38;;;;;;;;;;5000279;28;21141;-58
2023/06/11 04:49:37;;;;;;;11.50;6.80;;;;;;;;;;4999328;28;20034;-58
2023/06/11 04:52:03;;;;;;;10.25;6.47;;;;;;;;;;5000408;28;20034;-58
2023/06/11 04:54:31;;;;;;;10.65;7.10;;;;;;;;;;4996524;28;20128;-58
2023/06/11 04:56:57;;;;;;;11.10;7.88;;;;;;;;;;5000464;28;20101;-58
2023/06/11 04:59:23;;;;;;;9.27;6.82;;;;;;;;;;5000206;28;20037;-58
2023/06/11 05:01:53;;;;;;;10.65;7.05;;;;;;;;;;4998868;28;20033;-58
2023/06/11 05:04:19;;;;;;;8.55;6.63;;;;;;;;;;4999941;28;20030;-58
2023/06/11 05:06:46;;;;;;;9.73;6.88;;;;;;;;;;5000729;28;20092;-58
2023/06/11 05:09:13;;;;;;;12.80;7.25;;;;;;;;;;4999349;28;21005;-58
2023/06/11 05:11:40;;;;;;;9.70;6.88;;;;;;;;;;4999409;28;20065;-58
2023/06/11 05:14:06;;;;;;;9.13;6.68;;;;;;;;;;4998677;28;20167;-58
2023/06/11 05:16:33;;;;;;;11.38;7.03;;;;;;;;;;4997511;28;20104;-58
2023/06/11 05:19:01;;;;;;;13.18;7.05;;;;;;;;;;4997955;28;20036;-58
2023/06/11 05:21:27;;;;;;;10.48;7.03;;;;;;;;;;4999316;28;20038;-58
2023/06/11 05:23:53;;;;;;;11.00;7.13;;;;;;;;;;4998938;28;21025;-58
2023/06/11 05:26:31;;;;;;;10.13;6.70;;;;;;;;;;4999353;28;20069;-58
2023/06/11 05:28:57;;;;;;;9.52;7.20;;;;;;;;;;4999873;28;20034;-58
2023/06/11 05:31:23;;;;;;;10.00;6.97;;;;;;;;;;4999442;28;20037;-58
2023/06/11 05:33:50;;;;;;;10.18;7.03;;;;;;;;;;4999500;28;20038;-58
2023/06/11 05:36:16;;;;;;;9.23;7.15;;;;;;;;;;5000339;28;20065;-58
2023/06/11 05:38:43;;;;;;;12.00;7.22;;;;;;;;;;5000241;28;20022;-57
2023/06/11 05:41:09;;;;;;;14.15;6.88;;;;;;;;;;5000040;28;20041;-58
2023/06/11 05:43:35;;;;;;;9.05;6.78;;;;;;;;;;5000045;28;20048;-57
2023/06/11 05:46:01;;;;;;;10.48;6.53;;;;;;;;;;4997937;28;20828;-58
2023/06/11 05:48:28;;;;;;;12.52;7.07;;;;;;;;;;4999799;28;20044;-58
2023/06/11 05:50:55;;;;;;;15.00;7.90;;;;;;;;;;4999191;28;20064;-58
2023/06/11 05:53:21;;;;;;;10.00;6.80;;;;;;;;;;4999730;28;20038;-58
2023/06/11 05:55:47;;;;;;;10.27;7.30;;;;;;;;;;4999415;28;20037;-58
2023/06/11 05:58:13;;;;;;;10.13;7.40;;;;;;;;;;4999349;28;20045;-58
2023/06/11 06:00:39;;;;;;;10.18;7.32;;;;;;;;;;4998792;28;20030;-58
2023/06/11 06:03:05;;;;;;;10.45;6.57;;;;;;;;;;4999105;28;20033;-58
2023/06/11 06:05:31;;;;;;;11.05;7.20;;;;;;;;;;4999342;28;20030;-58
2023/06/11 06:07:58;;;;;;;9.63;6.97;;;;;;;;;;4998976;28;20041;-58
2023/06/11 06:10:24;;;;;;;9.85;6.75;;;;;;;;;;5000326;28;20037;-58
2023/06/11 06:12:50;;;;;;;12.50;8.30;;;;;;;;;;4998719;28;20046;-58
2023/06/11 06:15:16;;;;;;;10.43;6.85;;;;;;;;;;4999441;28;20504;-58
2023/06/11 06:17:42;;;;;;;10.18;7.78;;;;;;;;;;4999310;28;20041;-58
2023/06/11 06:20:10;;;;;;;9.13;7.25;;;;;;;;;;4998846;28;21091;-58
2023/06/11 06:22:36;;;;;;;9.07;6.53;;;;;;;;;;4998217;28;20123;-58
2023/06/11 06:25:02;;;;;;;10.05;6.63;;;;;;;;;;4997881;28;20041;-58
2023/06/11 06:27:28;;;;;;;10.68;6.95;;;;;;;;;;5003835;28;20030;-58
2023/06/11 06:29:54;;;;;;;9.30;6.88;;;;;;;;;;4998481;28;20038;-58
2023/06/11 06:32:20;;;;;;;9.65;6.43;;;;;;;;;;4997598;28;20026;-59
2023/06/11 06:34:46;;;;;;;9.93;6.18;;;;;;;;;;4999034;28;20037;-58
2023/06/11 06:37:12;;;;;;;10.10;7.25;;;;;;;;;;4997535;28;20033;-58
2023/06/11 06:39:38;;;;;;;9.98;7.07;;;;;;;;;;4997645;28;20048;-59
2023/06/11 06:42:04;;;;;;;10.85;7.15;;;;;;;;;;4997426;28;20060;-59
2023/06/11 06:44:31;;;;;;;10.50;7.43;;;;;;;;;;4994352;28;20029;-59
2023/06/11 06:46:57;;;;;;;13.00;7.15;;;;;;;;;;4998692;28;20037;-59
2023/06/11 06:49:23;;;;;;;10.25;7.35;;;;;;;;;;4997427;28;21660;-59
2023/06/11 06:51:49;;;;;;;16.67;8.02;;;;;;;;;;4997539;28;20086;-59
2023/06/11 06:54:16;;;;;;;10.10;7.38;;;;;;;;;;4997486;28;20053;-59
2023/06/11 06:56:42;;;;;;;12.07;6.88;;;;;;;;;;4996934;28;21166;-59
2023/06/11 06:59:08;;;;;;;10.30;7.13;;;;;;;;;;4998015;28;20125;-59
2023/06/11 07:01:35;;;;;;;10.55;7.05;;;;;;;;;;4998015;28;20358;-60
2023/06/11 07:04:01;;;;;;;9.90;6.95;;;;;;;;;;4981015;28;20053;-60
2023/06/11 07:06:27;;;;;;;9.82;6.60;;;;;;;;;;4997812;28;20025;-59
2023/06/11 07:08:53;;;;;;;12.95;7.30;;;;;;;;;;4998650;28;20088;-60
2023/06/11 07:11:21;;;;;;;14.15;7.20;;;;;;;;;;4996373;28;20045;-61
2023/06/11 07:13:48;;;;;;;9.57;6.90;;;;;;;;;;4998211;28;20037;-60
2023/06/11 07:16:15;;;;;;;12.02;7.32;;;;;;;;;;4997703;28;20038;-59
2023/06/11 07:18:41;;;;;;;10.57;7.18;;;;;;;;;;4992931;28;20042;-60
2023/06/11 07:21:08;;;;;;;12.50;7.30;;;;;;;;;;4997335;28;20074;-60
2023/06/11 07:23:34;;;;;;;10.45;7.30;;;;;;;;;;4994303;28;20049;-60
2023/06/11 07:26:02;;;;;;;10.40;7.57;;;;;;;;;;4991627;28;20041;-60
2023/06/11 07:28:28;;;;;;;10.60;7.22;;;;;;;;;;4994991;28;20032;-60
2023/06/11 07:30:54;;;;;;;10.85;6.43;;;;;;;;;;4995500;28;20152;-60
2023/06/11 07:33:20;;;;;;;7.60;5.93;;;;;;;;;;4996778;28;20045;-60
2023/06/11 07:35:49;;;;;;;12.68;7.50;;;;;;;;;;4995854;28;20041;-60
2023/06/11 07:38:16;;;;;;;11.85;7.10;;;;;;;;;;4997895;28;20050;-60
2023/06/11 07:40:42;;;;;;;8.13;6.70;;;;;;;;;;4996806;28;21128;-60
2023/06/11 07:43:08;;;;;;;9.05;7.53;;;;;;;;;;4997609;28;20354;-60
2023/06/11 07:45:34;;;;;;;10.75;7.30;;;;;;;;;;4997872;28;20022;-60
2023/06/11 07:48:01;;;;;;;10.45;7.30;;;;;;;;;;4997873;28;20453;-60
2023/06/11 07:50:27;;;;;;;8.60;7.15;;;;;;;;;;4997471;28;20041;-60
2023/06/11 07:52:54;;;;;;;9.77;6.80;;;;;;;;;;4997488;28;20040;-60
2023/06/11 07:55:20;;;;;;;13.27;7.03;;;;;;;;;;4996586;28;20109;-60
2023/06/11 07:57:46;;;;;;;8.55;6.65;;;;;;;;;;4997283;28;20065;-60
2023/06/11 08:00:12;;;;;;;9.35;6.57;;;;;;;;;;4997638;28;20045;-60
2023/06/11 08:02:39;;;;;;;9.88;7.13;;;;;;;;;;4995434;28;20041;-60
2023/06/11 08:05:06;;;;;;;9.65;7.20;;;;;;;;;;4996541;28;20049;-60
2023/06/11 08:07:32;;;;;;;10.82;7.00;;;;;;;;;;4996685;28;20029;-60
2023/06/11 08:09:58;;;;;;;11.68;7.10;;;;;;;;;;4998660;28;20164;-60
2023/06/11 08:12:25;;;;;;;11.90;6.78;;;;;;;;;;5001175;28;20092;-60
2023/06/11 08:14:51;;;;;;;12.40;6.93;;;;;;;;;;5001592;28;20383;-60
2023/06/11 08:17:17;;;;;;;10.40;6.50;;;;;;;;;;5016160;28;20037;-60
2023/06/11 08:19:43;;;;;;;12.45;7.15;;;;;;;;;;5001100;28;20030;-60
2023/06/11 08:22:09;;;;;;;9.98;6.80;;;;;;;;;;5000471;28;20092;-60
2023/06/11 08:24:35;;;;;;;10.10;6.80;;;;;;;;;;5001363;28;20034;-60
2023/06/11 08:27:02;;;;;;;13.13;6.40;;;;;;;;;;5000397;28;20038;-60
2023/06/11 08:29:28;;;;;;;10.18;6.60;;;;;;;;;;5001196;28;20033;-60
2023/06/11 08:31:54;;;;;;;16.27;7.45;;;;;;;;;;5001097;28;20043;-60
2023/06/11 08:34:20;;;;;;;12.38;6.93;;;;;;;;;;4999540;28;20048;-60
2023/06/11 08:36:47;;;;;;;9.30;6.32;;;;;;;;;;4988888;28;20037;-61
2023/06/11 08:39:13;;;;;;;10.38;6.60;;;;;;;;;;4991511;28;20148;-61
2023/06/11 08:41:39;;;;;;;9.00;6.63;;;;;;;;;;4991522;28;20129;-60
2023/06/11 08:44:05;;;;;;;10.77;6.60;;;;;;;;;;4992083;28;20045;-61
2023/06/11 08:46:35;;;;;;;10.52;6.95;;;;;;;;;;4992179;28;20076;-60
2023/06/11 08:49:05;;;;;;;8.98;6.18;;;;;;;;;;4991959;28;20033;-60
2023/06/11 08:51:35;;;;;;;8.48;6.32;;;;;;;;;;4991568;28;20030;-60
2023/06/11 08:54:01;;;;;;;10.25;7.57;;;;;;;;;;4991999;28;20042;-60
2023/06/11 08:56:28;;;;;;;8.93;6.60;;;;;;;;;;4991705;28;20883;-60
2023/06/11 08:58:55;;;;;;;8.30;6.20;;;;;;;;;;4991652;28;20039;-60
2023/06/11 09:01:22;;;;;;;11.48;6.55;;;;;;;;;;4991415;28;21807;-60
2023/06/11 09:03:48;;;;;;;8.13;6.07;;;;;;;;;;4991378;28;20029;-60
2023/06/11 09:06:14;;;;;;;9.68;6.70;;;;;;;;;;4990451;28;20461;-60
2023/06/11 09:08:40;;;;;;;8.57;6.57;;;;;;;;;;4991513;28;20037;-60
2023/06/11 09:11:06;;;;;;;9.35;6.00;;;;;;;;;;4991036;28;20034;-60
2023/06/11 09:13:33;;;;;;;9.43;6.25;;;;;;;;;;4990783;28;20041;-61
2023/06/11 09:15:59;;;;;;;9.07;6.80;;;;;;;;;;4990492;28;21040;-60
2023/06/11 09:18:26;;;;;;;10.27;6.60;;;;;;;;;;4990965;28;20033;-61
2023/06/11 09:20:53;;;;;;;8.90;6.22;;;;;;;;;;4989867;28;20044;-60
2023/06/11 09:23:29;;;;;;;9.68;6.70;;;;;;;;;;4991117;28;20026;-60
2023/06/11 09:25:56;;;;;;;8.18;6.03;;;;;;;;;;4991062;28;20973;-61
2023/06/11 09:28:27;;;;;;;8.10;5.80;;;;;;;;;;4990659;28;20026;-61
2023/06/11 09:30:57;;;;;;;8.43;6.13;;;;;;;;;;4989200;28;20033;-60
2023/06/11 09:33:23;;;;;;;8.73;6.60;;;;;;;;;;4988766;28;20112;-61
2023/06/11 09:35:51;;;;;;;9.57;5.97;;;;;;;;;;4997084;28;20163;-61
2023/06/11 09:38:17;;;;;;;11.32;6.25;;;;;;;;;;4998735;28;20026;-61
2023/06/11 09:40:47;;;;;;;7.85;5.75;;;;;;;;;;4995838;28;20041;-61
2023/06/11 09:43:14;;;;;;;10.00;5.75;;;;;;;;;;4997781;28;20747;-60
2023/06/11 09:45:41;;;;;;;7.57;6.15;;;;;;;;;;4997966;28;20041;-61
2023/06/11 09:48:10;;;;;;;11.73;6.43;;;;;;;;;;4998520;28;20049;-60
2023/06/11 09:50:36;;;;;;;8.80;5.88;;;;;;;;;;4998744;28;20076;-61
2023/06/11 09:53:04;;;;;;;11.57;5.35;;;;;;;;;;4999017;28;20034;-61
2023/06/11 09:55:34;;;;;;;8.75;5.97;;;;;;;;;;4999354;28;20030;-61
2023/06/11 09:58:01;;;;;;;9.38;5.63;;;;;;;;;;4998875;28;20139;-61
2023/06/11 10:00:27;;;;;;;7.53;5.75;;;;;;;;;;4999451;28;20049;-61
2023/06/11 10:02:54;;;;;;;9.77;5.63;;;;;;;;;;4998871;28;20106;-61
2023/06/11 10:05:20;;;;;;;7.63;5.72;;;;;;;;;;4998894;28;20030;-61
2023/06/11 10:07:46;;;;;;;8.20;5.72;;;;;;;;;;4996405;28;20034;-61
2023/06/11 10:10:15;;;;;;;9.10;5.72;;;;;;;;;;4997305;28;20044;-61
2023/06/11 10:12:41;;;;;;;10.55;5.82;;;;;;;;;;4998811;28;20056;-61
2023/06/11 10:15:10;;;;;;;7.13;5.35;;;;;;;;;;4998066;28;20117;-61
2023/06/11 10:17:36;;;;;;;8.20;5.50;;;;;;;;;;4998962;28;20153;-61
2023/06/11 10:20:03;;;;;;;9.15;6.03;;;;;;;;;;4999125;28;20037;-61
2023/06/11 10:22:33;;;;;;;8.43;5.35;;;;;;;;;;4997334;28;20118;-61
2023/06/11 10:25:00;;;;;;;6.30;5.03;;;;;;;;;;4998076;28;20034;-61
2023/06/11 10:27:36;;;;;;;7.68;5.68;;;;;;;;;;4998576;28;20030;-61
2023/06/11 10:30:02;;;;;;;8.63;5.38;;;;;;;;;;4997323;28;20034;-61
2023/06/11 10:32:29;;;;;;;8.68;5.50;;;;;;;;;;4997480;28;20037;-61
2023/06/11 10:34:56;;;;;;;8.65;5.88;;;;;;;;;;4998790;28;20091;-61
2023/06/11 10:37:32;;;;;;;8.27;5.63;;;;;;;;;;4998182;28;21151;-61
2023/06/11 10:39:58;;;;;;;8.50;5.40;;;;;;;;;;4998583;28;20061;-61
2023/06/11 10:42:28;;;;;;;9.30;5.82;;;;;;;;;;4998783;28;20058;-61
2023/06/11 10:44:58;;;;;;;8.45;5.20;;;;;;;;;;4998016;28;20026;-61
2023/06/11 10:47:25;;;;;;;10.15;5.20;;;;;;;;;;4998107;28;20056;-61
2023/06/11 10:49:51;;;;;;;9.50;5.18;;;;;;;;;;4998043;28;20026;-61
2023/06/11 10:52:17;;;;;;;14.10;6.20;;;;;;;;;;4995963;28;20030;-61
2023/06/11 10:54:43;;;;;;;10.02;5.55;;;;;;;;;;4996968;28;20619;-61
2023/06/11 10:57:10;;;;;;;8.15;5.10;;;;;;;;;;4997592;28;20033;-61
2023/06/11 10:59:38;;;;;;;7.75;5.47;;;;;;;;;;4996595;28;20037;-61
2023/06/11 11:02:04;;;;;;;8.30;5.63;;;;;;;;;;4997402;28;20080;-60
2023/06/11 11:04:30;;;;;;;6.88;5.18;;;;;;;;;;4996449;28;20030;-61
2023/06/11 11:07:08;;;;;;;8.45;4.97;;;;;;;;;;4997177;28;20022;-61
2023/06/11 11:09:34;;;;;;;7.90;4.95;;;;;;;;;;4998048;28;20029;-61
2023/06/11 11:12:00;;;;;;;8.98;5.40;;;;;;;;;;4997723;28;20061;-61
2023/06/11 11:14:28;;;;;;;11.02;5.55;;;;;;;;;;4996497;28;20029;-61
2023/06/11 11:16:55;;;;;;;8.93;5.40;;;;;;;;;;4997731;28;20033;-61
2023/06/11 11:19:24;;;;;;;7.30;4.93;;;;;;;;;;4996576;28;20026;-61
2023/06/11 11:21:51;;;;;;;10.73;4.85;;;;;;;;;;4998196;28;20108;-60
2023/06/11 11:24:17;;;;;;;9.18;5.20;;;;;;;;;;4997033;28;20034;-61
2023/06/11 11:26:44;;;;;;;9.43;5.47;;;;;;;;;;4997032;28;20038;-60
2023/06/11 11:29:10;;;;;;;7.47;4.80;;;;;;;;;;4997202;28;20096;-61
2023/06/11 11:31:37;;;;;;;7.72;5.20;;;;;;;;;;4997321;28;20112;-61
2023/06/11 11:34:03;;;;;;;7.50;4.93;;;;;;;;;;4995958;28;20038;-61
2023/06/11 11:36:29;;;;;;;9.20;4.88;;;;;;;;;;4998193;28;20044;-60
2023/06/11 11:38:55;;;;;;;7.63;4.65;;;;;;;;;;4996299;28;20124;-60
2023/06/11 11:41:24;;;;;;;9.00;5.28;;;;;;;;;;4996232;28;20508;-60
2023/06/11 11:43:51;;;;;;;8.63;4.95;;;;;;;;;;4994404;28;20743;-60
2023/06/11 11:46:18;;;;;;;8.00;4.47;;;;;;;;;;4993231;28;20052;-61
2023/06/11 11:48:44;;;;;;;8.18;4.93;;;;;;;;;;4994023;28;20076;-61
2023/06/11 11:51:11;;;;;;;7.05;4.60;;;;;;;;;;4995315;28;20037;-61
2023/06/11 11:53:37;;;;;;;6.88;4.22;;;;;;;;;;4996665;28;20048;-61
2023/06/11 11:56:04;;;;;;;7.63;4.53;;;;;;;;;;4994388;28;20519;-61
2023/06/11 11:58:36;;;;;;;7.78;4.65;;;;;;;;;;4995666;28;20033;-60
2023/06/11 12:01:02;;;;;;;11.57;4.75;;;;;;;;;;4994655;28;20424;-61
2023/06/11 12:03:29;;;;;;;9.05;4.60;;;;;;;;;;4996537;28;20052;-61
2023/06/11 12:06:05;;;;;;;8.73;4.45;;;;;;;;;;4996311;28;20680;-61
2023/06/11 12:08:32;;;;;;;12.32;4.40;;;;;;;;;;4997217;28;20030;-60
2023/06/11 12:10:59;;;;;;;6.40;4.20;;;;;;;;;;4997130;28;20244;-61
2023/06/11 12:13:25;;;;;;;9.02;4.80;;;;;;;;;;5008890;28;20072;-61
2023/06/11 12:15:52;;;;;;;8.52;5.07;;;;;;;;;;4996338;28;20033;-61
2023/06/11 12:18:18;;;;;;;6.60;4.57;;;;;;;;;;4992419;28;20061;-61
2023/06/11 12:20:44;;;;;;;9.68;5.10;;;;;;;;;;4994204;28;20021;-61
2023/06/11 12:23:11;;;;;;;8.68;4.57;;;;;;;;;;4996485;28;20072;-61
2023/06/11 12:25:37;;;;;;;9.30;4.78;;;;;;;;;;4995882;28;20107;-61
2023/06/11 12:28:03;;;;;;;6.82;4.68;;;;;;;;;;4996292;28;20047;-61
2023/06/11 12:30:33;;;;;;;7.53;4.45;;;;;;;;;;4996224;28;20089;-61
2023/06/11 12:32:59;;;;;;;8.45;4.72;;;;;;;;;;4995237;28;20034;-61
2023/06/11 12:35:25;;;;;;;6.82;4.75;;;;;;;;;;4994483;28;20049;-62
2023/06/11 12:37:52;;;;;;;7.90;5.22;;;;;;;;;;4996417;28;20080;-61
2023/06/11 12:40:18;;;;;;;7.05;4.70;;;;;;;;;;4995857;28;20033;-60
2023/06/11 12:42:44;;;;;;;5.85;4.40;;;;;;;;;;4997145;28;20999;-61
2023/06/11 12:45:11;;;;;;;8.52;4.78;;;;;;;;;;4996764;28;20022;-60
2023/06/11 12:47:37;;;;;;;10.38;4.78;;;;;;;;;;4995395;28;20025;-60
2023/06/11 12:50:03;;;;;;;8.38;4.80;;;;;;;;;;4996519;28;20030;-60
2023/06/11 12:52:29;;;;;;;7.82;4.57;;;;;;;;;;4996749;28;20794;-61
2023/06/11 12:54:56;;;;;;;7.13;4.43;;;;;;;;;;4996933;28;20037;-60
2023/06/11 12:57:22;;;;;;;7.25;4.65;;;;;;;;;;5000432;28;20042;-61
2023/06/11 12:59:48;;;;;;;8.73;4.85;;;;;;;;;;4998487;28;20120;-61
2023/06/11 13:02:14;;;;;;;8.30;5.53;;;;;;;;;;4999503;28;20042;-61
2023/06/11 13:04:42;;;;;;;7.07;4.47;;;;;;;;;;4998918;28;20036;-61
2023/06/11 13:07:08;;;;;;;7.22;4.85;;;;;;;;;;4994917;28;20412;-61
2023/06/11 13:09:35;;;;;;;6.95;4.60;;;;;;;;;;4997846;28;20026;-61
2023/06/11 13:12:01;;;;;;;7.05;4.72;;;;;;;;;;4997824;28;21780;-61
2023/06/11 13:14:27;;;;;;;7.78;4.57;;;;;;;;;;4998338;28;20045;-61
2023/06/11 13:16:54;;;;;;;7.45;4.93;;;;;;;;;;4995369;28;20116;-61
2023/06/11 13:19:21;;;;;;;8.27;5.05;;;;;;;;;;4999405;28;20535;-61
2023/06/11 13:21:47;;;;;;;7.85;5.20;;;;;;;;;;4997966;28;20104;-61
2023/06/11 13:24:14;;;;;;;7.78;4.80;;;;;;;;;;4998693;28;20041;-61
2023/06/11 13:26:42;;;;;;;8.18;5.20;;;;;;;;;;4997248;28;20041;-61
2023/06/11 13:29:08;;;;;;;6.60;4.47;;;;;;;;;;4998374;28;20030;-61
2023/06/11 13:31:34;;;;;;;7.38;4.80;;;;;;;;;;4996897;28;20064;-61
2023/06/11 13:34:01;;;;;;;10.68;4.78;;;;;;;;;;4997240;28;20040;-61
2023/06/11 13:36:27;;;;;;;7.72;4.88;;;;;;;;;;4996730;28;20080;-61
2023/06/11 13:38:54;;;;;;;8.20;4.97;;;;;;;;;;4998069;28;20035;-61
2023/06/11 13:41:20;;;;;;;7.07;5.07;;;;;;;;;;4990778;28;20196;-61
2023/06/11 13:43:47;;;;;;;9.70;4.95;;;;;;;;;;4987989;28;20029;-61
2023/06/11 13:46:14;;;;;;;7.13;4.70;;;;;;;;;;4987864;28;21461;-61
2023/06/11 13:48:40;;;;;;;6.90;4.72;;;;;;;;;;4987198;28;20084;-61
2023/06/11 13:51:07;;;;;;;7.32;4.90;;;;;;;;;;4987655;28;20378;-61
2023/06/11 13:53:33;;;;;;;9.25;5.10;;;;;;;;;;4988321;28;20039;-61
2023/06/11 13:55:59;;;;;;;8.45;4.93;;;;;;;;;;4987106;28;20029;-61
2023/06/11 13:58:25;;;;;;;10.23;5.50;;;;;;;;;;4987368;28;20092;-61
2023/06/11 14:00:51;;;;;;;11.27;4.90;;;;;;;;;;4986596;28;20087;-61
2023/06/11 14:03:17;;;;;;;7.68;4.90;;;;;;;;;;4984254;28;20037;-61
2023/06/11 14:05:43;;;;;;;7.43;4.63;;;;;;;;;;4986532;28;20033;-61
2023/06/11 14:08:16;;;;;;;10.90;4.38;;;;;;;;;;4986807;28;20076;-61
2023/06/11 14:10:42;;;;;;;10.00;4.82;;;;;;;;;;4987816;28;20037;-61
2023/06/11 14:13:08;;;;;;;7.82;5.00;;;;;;;;;;4985679;28;22027;-61
2023/06/11 14:15:34;;;;;;;10.05;5.55;;;;;;;;;;4988480;28;20044;-61
2023/06/11 14:18:00;;;;;;;7.05;4.50;;;;;;;;;;4988791;28;20124;-61
2023/06/11 14:20:26;;;;;;;10.75;5.28;;;;;;;;;;4987171;28;20592;-61
2023/06/11 14:22:52;;;;;;;9.68;5.00;;;;;;;;;;4987477;28;20045;-61
2023/06/11 14:25:18;;;;;;;7.70;4.72;;;;;;;;;;4989177;28;20022;-61
2023/06/11 14:27:44;;;;;;;7.25;5.03;;;;;;;;;;4989485;28;20655;-61
2023/06/11 14:30:11;;;;;;;9.25;4.88;;;;;;;;;;4989913;28;20044;-61
2023/06/11 14:32:37;;;;;;;7.70;4.68;;;;;;;;;;4986905;28;20030;-61
2023/06/11 14:35:04;;;;;;;6.95;4.85;;;;;;;;;;4989029;28;20119;-61